createdAt,value
2018-08-23T00:01:28.235Z,46.13
2018-08-23T00:03:59.165Z,44.87
2018-08-23T00:06:27.818Z,46.77
2018-08-23T00:08:58.416Z,44.97
2018-08-23T00:11:59.897Z,45.10
2018-08-23T00:14:28.631Z,47.60
2018-08-23T00:16:57.267Z,46.50
2018-08-23T00:19:25.992Z,46.47
2018-08-23T00:21:54.648Z,44.03
2018-08-23T00:24:24.434Z,45.83
2018-08-23T00:26:54.590Z,46.13
2018-08-23T00:29:38.874Z,44.53
2018-08-23T00:32:08.590Z,47.50
2018-08-23T00:34:38.539Z,46.47
2018-08-23T00:37:07.875Z,43.97
2018-08-23T00:39:36.534Z,41.93
2018-08-23T00:42:06.675Z,47.50
2018-08-23T00:44:51.777Z,46.13
2018-08-23T00:47:20.821Z,45.47
2018-08-23T00:49:49.498Z,45.23
2018-08-23T00:52:20.784Z,45.80
2018-08-23T00:54:49.725Z,44.50
2018-08-23T00:57:18.516Z,46.43
2018-08-23T00:59:51.369Z,44.50
2018-08-23T01:02:20.750Z,45.10
2018-08-23T01:04:49.462Z,43.00
2018-08-23T01:07:23.513Z,44.47
2018-08-23T01:09:52.247Z,42.70
2018-08-23T01:12:21.124Z,41.60
2018-08-23T01:14:51.928Z,44.73
2018-08-23T01:17:20.616Z,44.43
2018-08-23T01:19:59.287Z,44.40
2018-08-23T01:22:27.877Z,44.87
2018-08-23T01:24:57.744Z,43.73
2018-08-23T01:27:31.726Z,43.60
2018-08-23T01:30:00.445Z,44.73
2018-08-23T01:32:33.176Z,44.87
2018-08-23T01:35:01.911Z,41.83
2018-08-23T01:37:38.659Z,42.67
2018-08-23T01:40:09.302Z,42.23
2018-08-23T01:42:39.226Z,44.50
2018-08-23T01:45:09.219Z,44.20
2018-08-23T01:47:43.612Z,41.10
2018-08-23T01:50:13.224Z,42.20
2018-08-23T01:52:47.003Z,42.87
2018-08-23T01:55:16.560Z,44.77
2018-08-23T01:57:45.674Z,41.43
2018-08-23T02:00:18.642Z,43.20
2018-08-23T02:02:47.395Z,44.70
2018-08-23T02:05:16.187Z,41.73
2018-08-23T02:07:45.010Z,44.97
2018-08-23T02:10:13.752Z,44.10
2018-08-23T02:12:47.761Z,43.70
2018-08-23T02:15:16.459Z,44.90
2018-08-23T02:17:50.628Z,43.77
2018-08-23T02:20:20.007Z,42.10
2018-08-23T02:22:48.593Z,42.47
2018-08-23T02:25:17.414Z,43.03
2018-08-23T02:28:10.983Z,41.10
2018-08-23T02:30:49.967Z,42.07
2018-08-23T02:33:18.837Z,43.90
2018-08-23T02:36:05.297Z,43.40
2018-08-23T02:38:34.769Z,42.30
2018-08-23T02:41:03.379Z,45.30
2018-08-23T02:43:32.105Z,43.20
2018-08-23T02:46:03.007Z,44.50
2018-08-23T02:48:35.211Z,43.17
2018-08-23T02:51:03.824Z,43.93
2018-08-23T02:53:51.548Z,41.40
2018-08-23T02:56:21.425Z,43.93
2018-08-23T02:58:55.056Z,43.23
2018-08-23T03:01:24.711Z,42.40
2018-08-23T03:04:05.747Z,42.77
2018-08-23T03:06:55.018Z,42.30
2018-08-23T03:09:26.986Z,43.60
2018-08-23T03:11:59.939Z,43.10
2018-08-23T03:14:29.178Z,43.20
2018-08-23T03:17:34.383Z,43.80
2018-08-23T03:20:09.353Z,43.67
2018-08-23T03:22:38.483Z,44.87
2018-08-23T03:25:10.682Z,42.07
2018-08-23T03:27:39.511Z,41.20
2018-08-23T03:30:10.225Z,44.17
2018-08-23T03:32:38.870Z,43.53
2018-08-23T03:35:07.728Z,41.80
2018-08-23T03:37:36.485Z,44.83
2018-08-23T03:40:05.486Z,41.90
2018-08-23T03:42:34.305Z,44.77
2018-08-23T03:45:03.383Z,46.17
2018-08-23T03:47:38.398Z,46.30
2018-08-23T03:50:08.318Z,45.00
2018-08-23T03:52:46.202Z,46.80
2018-08-23T03:55:18.110Z,46.47
2018-08-23T03:57:53.270Z,47.30
2018-08-23T04:00:29.205Z,45.23
2018-08-23T04:02:59.845Z,47.17
2018-08-23T04:05:28.753Z,47.13
2018-08-23T04:07:57.457Z,44.90
2018-08-23T04:10:26.178Z,46.07
2018-08-23T04:12:54.852Z,50.23
2018-08-23T04:15:32.413Z,50.20
2018-08-23T04:18:07.666Z,48.60
2018-08-23T04:20:36.937Z,51.27
2018-08-23T04:23:05.685Z,49.37
2018-08-23T04:25:34.568Z,50.07
2018-08-23T04:28:03.221Z,50.07
2018-08-23T04:30:33.218Z,49.13
2018-08-23T04:33:02.059Z,46.60
2018-08-23T04:35:30.764Z,49.07
2018-08-23T04:37:59.558Z,45.37
2018-08-23T04:40:28.323Z,49.03
2018-08-23T04:42:57.231Z,50.30
2018-08-23T04:45:31.150Z,48.13
2018-08-23T04:48:07.822Z,50.07
2018-08-23T04:50:37.517Z,49.40
2018-08-23T04:53:06.158Z,50.77
2018-08-23T04:55:35.823Z,46.97
2018-08-23T04:58:05.215Z,50.03
2018-08-23T05:00:34.110Z,48.23
2018-08-23T05:03:02.778Z,48.90
2018-08-23T05:05:31.740Z,47.80
2018-08-23T05:08:00.719Z,49.90
2018-08-23T05:10:29.365Z,47.17
2018-08-23T05:12:58.290Z,46.80
2018-08-23T05:15:27.016Z,46.00
2018-08-23T05:17:55.905Z,46.60
2018-08-23T05:20:24.731Z,46.90
2018-08-23T05:22:58.681Z,47.83
2018-08-23T05:25:27.409Z,46.30
2018-08-23T05:28:09.815Z,45.77
2018-08-23T05:30:38.617Z,45.00
2018-08-23T05:33:14.382Z,44.93
2018-08-23T05:35:43.154Z,45.67
2018-08-23T05:38:12.483Z,46.50
2018-08-23T05:40:46.419Z,46.03
2018-08-23T05:43:15.678Z,44.30
2018-08-23T05:45:49.601Z,46.63
2018-08-23T05:48:32.249Z,45.07
2018-08-23T05:51:02.575Z,42.93
2018-08-23T05:53:31.245Z,43.93
2018-08-23T05:56:00.921Z,44.00
2018-08-23T05:58:30.838Z,45.70
2018-08-23T06:00:59.546Z,45.23
2018-08-23T06:03:28.190Z,45.00
2018-08-23T06:05:57.275Z,45.67
2018-08-23T06:08:26.011Z,46.07
2018-08-23T06:10:58.326Z,48.27
2018-08-23T06:13:27.051Z,44.67
2018-08-23T06:15:56.770Z,44.57
2018-08-23T06:18:26.458Z,41.17
2018-08-23T06:20:55.209Z,42.70
2018-08-23T06:23:33.852Z,40.40
2018-08-23T06:26:02.627Z,41.67
2018-08-23T06:28:31.301Z,39.73
2018-08-23T06:31:01.766Z,44.73
2018-08-23T06:33:38.263Z,39.57
2018-08-23T06:36:09.500Z,41.37
2018-08-23T06:38:39.554Z,47.97
2018-08-23T06:41:08.795Z,42.43
2018-08-23T06:43:37.531Z,41.37
2018-08-23T06:46:06.206Z,41.47
2018-08-23T06:48:34.979Z,41.07
2018-08-23T06:51:05.628Z,41.90
2018-08-23T06:53:45.086Z,42.10
2018-08-23T06:56:14.326Z,42.13
2018-08-23T06:58:43.283Z,41.07
2018-08-23T07:01:27.266Z,41.83
2018-08-23T07:04:01.108Z,45.83
2018-08-23T07:06:31.556Z,44.47
2018-08-23T07:09:00.207Z,42.00
2018-08-23T07:11:29.230Z,45.07
2018-08-23T07:14:03.101Z,42.90
2018-08-23T07:16:31.844Z,44.43
2018-08-23T07:19:03.017Z,43.17
2018-08-23T07:21:31.843Z,44.27
2018-08-23T07:24:00.711Z,45.67
2018-08-23T07:26:29.622Z,44.87
2018-08-23T07:28:58.264Z,45.07
2018-08-23T07:31:27.121Z,45.47
2018-08-23T07:33:58.448Z,45.50
2018-08-23T07:36:30.255Z,46.33
2018-08-23T07:38:59.087Z,45.60
2018-08-23T07:41:28.005Z,43.40
2018-08-23T07:43:56.765Z,41.27
2018-08-23T07:46:25.496Z,38.23
2018-08-23T07:48:54.354Z,37.80
2018-08-23T07:51:25.475Z,39.10
2018-08-23T07:53:57.450Z,39.30
2018-08-23T07:56:27.439Z,34.23
2018-08-23T07:58:57.329Z,34.43
2018-08-23T08:01:32.000Z,31.87
2018-08-23T08:04:01.244Z,28.30
2018-08-23T08:06:30.160Z,30.30
2018-08-23T08:09:00.409Z,26.40
2018-08-23T08:11:37.122Z,25.80
2018-08-23T08:14:14.852Z,26.53
2018-08-23T08:16:43.620Z,25.97
2018-08-23T08:19:12.206Z,27.63
2018-08-23T08:21:40.893Z,28.33
2018-08-23T08:24:09.583Z,28.37
2018-08-23T08:26:38.176Z,25.23
2018-08-23T08:29:06.967Z,27.67
2018-08-23T08:31:35.567Z,26.97
2018-08-23T08:34:04.193Z,27.50
2018-08-23T08:36:33.815Z,29.47
2018-08-23T08:39:03.683Z,27.80
2018-08-23T08:41:36.565Z,26.07
2018-08-23T08:44:05.283Z,29.17
2018-08-23T08:46:34.068Z,27.43
2018-08-23T08:49:02.888Z,26.30
2018-08-23T08:51:32.960Z,20.10
2018-08-23T08:54:03.081Z,22.80
2018-08-23T08:56:38.338Z,23.00
2018-08-23T08:59:06.936Z,21.03
2018-08-23T09:01:35.661Z,20.90
2018-08-23T09:04:04.387Z,18.60
2018-08-23T09:06:45.645Z,19.90
2018-08-23T09:09:28.239Z,18.53
2018-08-23T09:11:59.097Z,20.57
2018-08-23T09:14:27.898Z,23.87
2018-08-23T09:16:56.566Z,23.10
2018-08-23T09:19:36.375Z,21.10
2018-08-23T09:22:10.275Z,22.43
2018-08-23T09:24:40.218Z,16.00
2018-08-23T09:27:16.555Z,16.23
2018-08-23T09:29:45.364Z,15.63
2018-08-23T09:32:31.431Z,13.47
2018-08-23T09:35:04.664Z,15.90
2018-08-23T09:37:36.364Z,13.50
2018-08-23T09:40:05.621Z,13.63
2018-08-23T09:42:35.443Z,14.83
2018-08-23T09:45:15.499Z,14.93
2018-08-23T09:47:44.114Z,14.27
2018-08-23T09:50:12.854Z,12.23
2018-08-23T09:52:47.258Z,14.10
2018-08-23T09:55:17.908Z,13.23
2018-08-23T09:57:47.196Z,10.80
2018-08-23T10:00:21.051Z,12.37
2018-08-23T10:02:55.125Z,10.17
2018-08-23T10:05:29.055Z,13.20
2018-08-23T10:08:03.065Z,12.70
2018-08-23T10:10:37.155Z,12.47
2018-08-23T10:13:11.364Z,14.40
2018-08-23T10:15:48.197Z,13.67
2018-08-23T10:18:25.923Z,15.27
2018-08-23T10:20:59.289Z,14.47
2018-08-23T10:23:27.954Z,14.90
2018-08-23T10:25:57.855Z,12.90
2018-08-23T10:28:32.566Z,13.90
2018-08-23T10:31:01.333Z,12.70
2018-08-23T10:33:29.997Z,13.83
2018-08-23T10:35:58.610Z,14.47
2018-08-23T10:38:28.521Z,16.43
2018-08-23T10:41:02.432Z,15.80
2018-08-23T10:43:36.359Z,18.30
2018-08-23T10:46:05.707Z,16.10
2018-08-23T10:48:34.508Z,15.60
2018-08-23T10:51:04.200Z,13.37
2018-08-23T10:53:32.998Z,13.27
2018-08-23T10:56:02.199Z,14.10
2018-08-23T10:58:31.004Z,13.73
2018-08-23T11:00:59.688Z,15.80
2018-08-23T11:03:28.632Z,17.30
2018-08-23T11:05:57.312Z,14.67
2018-08-23T11:08:34.125Z,15.63
2018-08-23T11:11:08.344Z,16.73
2018-08-23T11:13:42.309Z,17.27
2018-08-23T11:16:16.301Z,18.93
2018-08-23T11:18:50.354Z,18.47
2018-08-23T11:21:19.243Z,16.17
2018-08-23T11:23:48.244Z,16.80
2018-08-23T11:26:20.154Z,17.90
2018-08-23T11:28:49.707Z,18.03
2018-08-23T11:31:24.597Z,18.30
2018-08-23T11:33:53.532Z,17.00
2018-08-23T11:36:22.201Z,16.43
2018-08-23T11:38:50.871Z,13.97
2018-08-23T11:41:20.103Z,17.60
2018-08-23T11:43:49.086Z,15.50
2018-08-23T11:46:19.000Z,15.40
2018-08-23T11:48:48.553Z,15.70
2018-08-23T11:51:17.967Z,16.37
2018-08-23T11:53:47.423Z,13.90
2018-08-23T11:56:16.092Z,12.03
2018-08-23T11:58:44.826Z,12.90
2018-08-23T12:01:15.046Z,13.40
2018-08-23T12:03:44.254Z,13.40
2018-08-23T12:06:14.244Z,12.70
2018-08-23T12:08:43.845Z,12.00
2018-08-23T12:11:12.634Z,12.23
2018-08-23T12:13:47.102Z,15.13
2018-08-23T12:16:15.947Z,12.07
2018-08-23T12:18:44.649Z,12.23
2018-08-23T12:21:13.445Z,12.80
2018-08-23T12:23:42.241Z,11.10
2018-08-23T12:26:11.019Z,11.30
2018-08-23T12:28:45.091Z,11.50
2018-08-23T12:31:13.781Z,9.93
2018-08-23T12:33:42.760Z,8.53
2018-08-23T12:36:11.689Z,11.30
2018-08-23T12:38:45.644Z,9.83
2018-08-23T12:41:19.656Z,8.93
2018-08-23T12:43:51.873Z,11.23
2018-08-23T12:46:20.779Z,12.90
2018-08-23T12:48:53.618Z,10.50
2018-08-23T12:51:22.582Z,11.20
2018-08-23T12:53:51.240Z,14.33
2018-08-23T12:56:20.013Z,15.43
2018-08-23T12:58:48.674Z,14.17
2018-08-23T13:01:18.049Z,15.40
2018-08-23T13:03:46.883Z,13.33
2018-08-23T13:06:15.726Z,11.83
2018-08-23T13:08:44.752Z,11.40
2018-08-23T13:11:14.054Z,11.97
2018-08-23T13:13:42.955Z,11.20
2018-08-23T13:16:11.784Z,11.50
2018-08-23T13:18:40.487Z,9.03
2018-08-23T13:21:09.855Z,9.50
2018-08-23T13:23:42.772Z,12.07
2018-08-23T13:26:12.408Z,12.90
2018-08-23T13:28:41.142Z,14.50
2018-08-23T13:31:10.158Z,13.90
2018-08-23T13:33:38.891Z,13.33
2018-08-23T13:36:07.802Z,16.83
2018-08-23T13:38:37.338Z,15.97
2018-08-23T13:41:06.071Z,14.73
2018-08-23T13:43:34.817Z,14.63
2018-08-23T13:46:03.571Z,14.10
2018-08-23T13:48:32.333Z,13.17
2018-08-23T13:51:01.065Z,13.80
2018-08-23T13:53:29.740Z,15.93
2018-08-23T13:55:58.399Z,11.97
2018-08-23T13:58:27.179Z,13.13
2018-08-23T14:00:55.853Z,11.37
2018-08-23T14:03:24.823Z,11.43
2018-08-23T14:05:53.538Z,11.10
2018-08-23T14:08:22.425Z,11.67
2018-08-23T14:10:51.217Z,11.27
2018-08-23T14:13:19.938Z,12.20
2018-08-23T14:15:54.059Z,11.70
2018-08-23T14:18:23.143Z,10.17
2018-08-23T14:20:51.961Z,10.27
2018-08-23T14:23:20.671Z,9.70
2018-08-23T14:25:49.456Z,9.30
2018-08-23T14:28:18.107Z,9.93
2018-08-23T14:30:46.912Z,8.90
2018-08-23T14:33:15.914Z,9.03
2018-08-23T14:35:44.794Z,8.93
2018-08-23T14:38:13.728Z,8.20
2018-08-23T14:40:42.796Z,9.30
2018-08-23T14:43:11.859Z,10.00
2018-08-23T14:45:40.811Z,8.73
2018-08-23T14:48:14.618Z,9.23
2018-08-23T14:50:43.313Z,8.70
2018-08-23T14:53:12.183Z,14.47
2018-08-23T14:55:46.227Z,8.47
2018-08-23T14:58:15.991Z,10.33
2018-08-23T15:00:44.669Z,8.20
2018-08-23T15:03:13.414Z,9.90
2018-08-23T15:05:42.040Z,12.80
2018-08-23T15:08:10.754Z,12.80
2018-08-23T15:10:39.510Z,10.47
2018-08-23T15:13:08.227Z,14.17
2018-08-23T15:15:42.128Z,10.23
2018-08-23T15:18:10.845Z,11.70
2018-08-23T15:20:39.679Z,12.30
2018-08-23T15:23:09.628Z,11.10
2018-08-23T15:25:38.579Z,11.63
2018-08-23T15:28:07.818Z,12.17
2018-08-23T15:30:36.691Z,10.67
2018-08-23T15:33:05.783Z,10.90
2018-08-23T15:35:34.317Z,9.03
2018-08-23T15:38:03.038Z,9.37
2018-08-23T15:40:31.849Z,9.97
2018-08-23T15:43:01.029Z,8.63
2018-08-23T15:45:30.354Z,10.30
2018-08-23T15:48:00.617Z,10.03
2018-08-23T15:50:32.480Z,10.10
2018-08-23T15:53:01.472Z,10.97
2018-08-23T15:55:34.663Z,9.10
2018-08-23T15:58:03.547Z,7.80
2018-08-23T16:00:39.201Z,10.40
2018-08-23T16:03:08.449Z,8.60
2018-08-23T16:05:38.289Z,9.47
2018-08-23T16:08:07.329Z,8.73
2018-08-23T16:10:36.078Z,10.30
2018-08-23T16:13:04.972Z,8.77
2018-08-23T16:15:34.198Z,7.73
2018-08-23T16:18:08.436Z,8.17
2018-08-23T16:20:42.630Z,10.27
2018-08-23T16:23:11.339Z,9.03
2018-08-23T16:25:41.834Z,8.63
2018-08-23T16:28:10.581Z,8.90
2018-08-23T16:30:41.254Z,11.40
2018-08-23T16:33:10.609Z,10.90
2018-08-23T16:35:39.389Z,8.27
2018-08-23T16:38:08.345Z,10.10
2018-08-23T16:40:37.163Z,11.07
2018-08-23T16:43:06.006Z,10.17
2018-08-23T16:45:35.421Z,9.90
2018-08-23T16:48:10.148Z,9.63
2018-08-23T16:50:39.199Z,9.70
2018-08-23T16:53:08.268Z,12.00
2018-08-23T16:55:37.309Z,11.43
2018-08-23T16:58:06.029Z,11.07
2018-08-23T17:00:34.942Z,11.87
2018-08-23T17:03:04.105Z,11.37
2018-08-23T17:05:33.277Z,11.37
2018-08-23T17:08:02.761Z,11.40
2018-08-23T17:10:31.402Z,10.07
2018-08-23T17:13:00.331Z,10.30
2018-08-23T17:15:34.453Z,12.30
2018-08-23T17:18:03.642Z,10.57
2018-08-23T17:20:32.418Z,10.47
2018-08-23T17:23:01.990Z,13.40
2018-08-23T17:25:30.654Z,11.17
2018-08-23T17:27:59.315Z,11.90
2018-08-23T17:30:28.068Z,10.40
2018-08-23T17:32:56.806Z,11.50
2018-08-23T17:35:25.731Z,11.60
2018-08-23T17:37:54.589Z,12.10
2018-08-23T17:40:23.269Z,12.30
2018-08-23T17:42:52.219Z,12.03
2018-08-23T17:45:20.870Z,13.10
2018-08-23T17:47:49.811Z,12.50
2018-08-23T17:50:18.545Z,14.80
2018-08-23T17:52:47.744Z,16.40
2018-08-23T17:55:16.398Z,13.57
2018-08-23T17:57:45.117Z,14.20
2018-08-23T18:00:14.007Z,12.13
2018-08-23T18:02:46.566Z,12.60
2018-08-23T18:05:15.258Z,12.53
2018-08-23T18:07:44.187Z,12.97
2018-08-23T18:10:12.939Z,13.13
2018-08-23T18:12:41.668Z,13.17
2018-08-23T18:15:10.671Z,12.20
2018-08-23T18:17:40.017Z,14.50
2018-08-23T18:20:09.505Z,15.30
2018-08-23T18:22:38.648Z,15.17
2018-08-23T18:25:07.398Z,13.90
2018-08-23T18:27:36.244Z,14.80
2018-08-23T18:30:05.664Z,13.80
2018-08-23T18:32:34.802Z,13.13
2018-08-23T18:35:03.460Z,12.80
2018-08-23T18:37:32.346Z,11.17
2018-08-23T18:40:01.221Z,13.53
2018-08-23T18:42:30.285Z,9.53
2018-08-23T18:44:58.996Z,10.63
2018-08-23T18:47:27.851Z,9.73
2018-08-23T18:49:56.693Z,9.00
2018-08-23T18:52:25.850Z,8.70
2018-08-23T18:54:54.563Z,8.50
2018-08-23T18:57:25.747Z,8.13
2018-08-23T18:59:54.572Z,8.63
2018-08-23T19:02:26.964Z,8.80
2018-08-23T19:04:55.742Z,9.83
2018-08-23T19:07:29.900Z,10.30
2018-08-23T19:09:58.808Z,9.43
2018-08-23T19:12:28.101Z,9.63
2018-08-23T19:14:57.347Z,9.37
2018-08-23T19:17:31.382Z,8.93
2018-08-23T19:20:00.222Z,9.60
2018-08-23T19:22:29.110Z,9.27
2018-08-23T19:24:59.630Z,9.23
2018-08-23T19:27:28.259Z,8.90
2018-08-23T19:29:57.249Z,9.43
2018-08-23T19:32:25.925Z,9.20
2018-08-23T19:34:54.755Z,9.93
2018-08-23T19:37:23.698Z,8.70
2018-08-23T19:39:53.025Z,8.30
2018-08-23T19:42:22.057Z,8.07
2018-08-23T19:44:56.738Z,9.50
2018-08-23T19:47:30.708Z,9.43
2018-08-23T19:50:00.652Z,10.17
2018-08-23T19:52:29.892Z,9.33
2018-08-23T19:54:59.402Z,9.03
2018-08-23T19:57:28.180Z,8.50
2018-08-23T19:59:56.938Z,8.67
2018-08-23T20:02:25.686Z,9.17
2018-08-23T20:04:54.363Z,8.50
2018-08-23T20:07:22.962Z,8.00
2018-08-23T20:09:51.750Z,9.63
2018-08-23T20:12:20.520Z,8.63
2018-08-23T20:14:49.298Z,8.03
2018-08-23T20:17:18.003Z,8.40
2018-08-23T20:19:46.833Z,6.97
2018-08-23T20:22:15.820Z,8.53
2018-08-23T20:24:44.431Z,9.37
2018-08-23T20:27:13.065Z,8.20
2018-08-23T20:29:41.730Z,7.30
2018-08-23T20:32:10.421Z,6.90
2018-08-23T20:34:38.957Z,7.63
2018-08-23T20:37:07.618Z,7.60
2018-08-23T20:39:36.522Z,7.80
2018-08-23T20:42:05.130Z,8.23
2018-08-23T20:44:33.873Z,8.23
2018-08-23T20:47:02.612Z,7.83
2018-08-23T20:49:31.206Z,7.73
2018-08-23T20:51:59.936Z,7.40
2018-08-23T20:54:28.698Z,8.30
2018-08-23T20:56:57.334Z,8.37
2018-08-23T20:59:26.144Z,9.27
2018-08-23T21:01:54.842Z,7.80
2018-08-23T21:04:24.334Z,9.00
2018-08-23T21:06:53.136Z,8.83
2018-08-23T21:09:21.834Z,9.00
2018-08-23T21:11:51.576Z,9.73
2018-08-23T21:14:20.226Z,8.70
2018-08-23T21:16:48.964Z,10.00
2018-08-23T21:19:17.623Z,8.40
2018-08-23T21:21:46.357Z,10.37
2018-08-23T21:24:14.986Z,9.30
2018-08-23T21:26:43.755Z,8.57
2018-08-23T21:29:12.477Z,8.63
2018-08-23T21:31:41.121Z,9.37
2018-08-23T21:34:09.805Z,8.17
2018-08-23T21:36:38.477Z,8.57
2018-08-23T21:39:08.982Z,9.67
2018-08-23T21:41:37.743Z,9.63
2018-08-23T21:44:06.441Z,8.67
2018-08-23T21:46:35.038Z,8.43
2018-08-23T21:49:03.773Z,7.70
2018-08-23T21:51:32.435Z,9.23
2018-08-23T21:54:01.206Z,8.17
2018-08-23T21:56:29.788Z,8.17
2018-08-23T21:58:58.454Z,8.23
2018-08-23T22:01:27.125Z,9.63
2018-08-23T22:03:55.776Z,9.00
2018-08-23T22:06:24.421Z,9.97
2018-08-23T22:08:53.094Z,9.77
2018-08-23T22:11:22.616Z,9.33
2018-08-23T22:13:51.238Z,9.07
2018-08-23T22:16:19.831Z,8.97
2018-08-23T22:18:48.608Z,8.47
2018-08-23T22:21:17.301Z,7.70
2018-08-23T22:23:45.942Z,8.20
2018-08-23T22:26:14.633Z,7.23
2018-08-23T22:28:44.060Z,7.10
2018-08-23T22:31:12.736Z,7.27
2018-08-23T22:33:43.281Z,7.30
2018-08-23T22:36:11.935Z,6.90
2018-08-23T22:38:40.798Z,6.90
2018-08-23T22:41:09.567Z,6.10
2018-08-23T22:43:38.415Z,7.40
2018-08-23T22:46:07.192Z,6.97
2018-08-23T22:48:35.887Z,6.60
2018-08-23T22:51:04.744Z,6.20
2018-08-23T22:53:33.355Z,6.80
2018-08-23T22:56:02.161Z,6.73
2018-08-23T22:58:30.748Z,5.90
2018-08-23T23:00:59.340Z,5.53
2018-08-23T23:03:33.339Z,6.70
2018-08-23T23:06:01.940Z,5.70
2018-08-23T23:08:30.568Z,6.20
2018-08-23T23:10:59.176Z,6.80
2018-08-23T23:13:28.018Z,6.87
2018-08-23T23:15:56.620Z,6.47
2018-08-23T23:18:25.334Z,6.27
2018-08-23T23:20:54.038Z,6.13
2018-08-23T23:23:22.659Z,5.50
2018-08-23T23:25:51.405Z,5.30
2018-08-23T23:28:19.989Z,5.00
2018-08-23T23:30:48.894Z,4.10
2018-08-23T23:33:17.549Z,5.00
2018-08-23T23:35:46.200Z,4.40
2018-08-23T23:38:14.862Z,4.30
2018-08-23T23:40:43.456Z,4.53
2018-08-23T23:43:12.042Z,4.37
2018-08-23T23:45:40.717Z,3.80
2018-08-23T23:48:09.543Z,3.80
2018-08-23T23:50:38.149Z,3.10
2018-08-23T23:53:06.864Z,1.73
2018-08-23T23:55:35.604Z,1.70
2018-08-23T23:58:04.271Z,1.37
